sensor_id;sensor_type;location;lat;lon;timestamp;pressure;altitude;pressure_sealevel;temperature;humidity
21300;BME280;10809;49.476;11.016;2024-01-30T00:01:20;99750.56;;;1.98;54.42
21300;BME280;10809;49.476;11.016;2024-01-30T00:03:51;99747.94;;;1.95;54.72
21300;BME280;10809;49.476;11.016;2024-01-30T00:06:21;99747.94;;;1.92;54.79
21300;BME280;10809;49.476;11.016;2024-01-30T00:08:52;99754.03;;;1.91;54.54
21300;BME280;10809;49.476;11.016;2024-01-30T00:11:23;99751.41;;;1.88;54.58
21300;BME280;10809;49.476;11.016;2024-01-30T00:13:56;99745.31;;;1.88;54.26
21300;BME280;10809;49.476;11.016;2024-01-30T00:16:26;99749.69;;;1.86;54.79
21300;BME280;10809;49.476;11.016;2024-01-30T00:18:57;99754.03;;;1.84;54.80
21300;BME280;10809;49.476;11.016;2024-01-30T00:21:28;99752.28;;;1.83;54.64
21300;BME280;10809;49.476;11.016;2024-01-30T00:24:01;99742.69;;;1.80;54.56
21300;BME280;10809;49.476;11.016;2024-01-30T00:26:32;99743.56;;;1.78;54.97
21300;BME280;10809;49.476;11.016;2024-01-30T00:29:03;99747.06;;;1.77;54.69
21300;BME280;10809;49.476;11.016;2024-01-30T00:31:33;99743.56;;;1.75;54.63
21300;BME280;10809;49.476;11.016;2024-01-30T00:34:04;99740.06;;;1.73;54.82
21300;BME280;10809;49.476;11.016;2024-01-30T00:36:35;99738.31;;;1.70;54.62
21300;BME280;10809;49.476;11.016;2024-01-30T00:39:05;99737.44;;;1.68;54.79
21300;BME280;10809;49.476;11.016;2024-01-30T00:41:39;99730.47;;;1.66;54.81
21300;BME280;10809;49.476;11.016;2024-01-30T00:44:09;99742.66;;;1.64;54.44
21300;BME280;10809;49.476;11.016;2024-01-30T00:46:39;99733.94;;;1.62;55.02
21300;BME280;10809;49.476;11.016;2024-01-30T00:49:10;99733.91;;;1.59;55.15
21300;BME280;10809;49.476;11.016;2024-01-30T00:51:40;99738.28;;;1.58;54.57
21300;BME280;10809;49.476;11.016;2024-01-30T00:54:11;99734.78;;;1.56;54.55
21300;BME280;10809;49.476;11.016;2024-01-30T00:56:41;99729.56;;;1.53;54.93
21300;BME280;10809;49.476;11.016;2024-01-30T00:59:12;99732.16;;;1.52;55.23
21300;BME280;10809;49.476;11.016;2024-01-30T01:01:42;99726.94;;;1.49;55.06
21300;BME280;10809;49.476;11.016;2024-01-30T01:04:13;99734.78;;;1.47;54.65
21300;BME280;10809;49.476;11.016;2024-01-30T01:06:43;99734.75;;;1.46;54.55
21300;BME280;10809;49.476;11.016;2024-01-30T01:09:14;99738.25;;;1.43;54.92
21300;BME280;10809;49.476;11.016;2024-01-30T01:11:44;99739.09;;;1.41;54.97
21300;BME280;10809;49.476;11.016;2024-01-30T01:14:15;99735.63;;;1.39;55.23
21300;BME280;10809;49.476;11.016;2024-01-30T01:16:48;99734.72;;;1.37;54.86
21300;BME280;10809;49.476;11.016;2024-01-30T01:19:22;99736.44;;;1.35;55.01
21300;BME280;10809;49.476;11.016;2024-01-30T01:21:52;99736.44;;;1.32;55.27
21300;BME280;10809;49.476;11.016;2024-01-30T01:24:23;99726.88;;;1.31;55.54
21300;BME280;10809;49.476;11.016;2024-01-30T01:26:54;99738.19;;;1.30;54.78
21300;BME280;10809;49.476;11.016;2024-01-30T01:29:25;99737.31;;;1.28;54.84
21300;BME280;10809;49.476;11.016;2024-01-30T01:31:58;99738.19;;;1.27;55.14
21300;BME280;10809;49.476;11.016;2024-01-30T01:34:29;99739.03;;;1.26;55.38
21300;BME280;10809;49.476;11.016;2024-01-30T01:36:59;99734.69;;;1.26;55.05
21300;BME280;10809;49.476;11.016;2024-01-30T01:39:30;99730.34;;;1.25;55.62
21300;BME280;10809;49.476;11.016;2024-01-30T01:42:00;99723.38;;;1.26;55.15
21300;BME280;10809;49.476;11.016;2024-01-30T01:44:31;99718.16;;;1.26;55.33
21300;BME280;10809;49.476;11.016;2024-01-30T01:47:01;99715.53;;;1.24;55.61
21300;BME280;10809;49.476;11.016;2024-01-30T01:49:32;99711.22;;;1.25;55.60
21300;BME280;10809;49.476;11.016;2024-01-30T01:52:03;99703.38;;;1.25;55.72
21300;BME280;10809;49.476;11.016;2024-01-30T01:54:33;99701.66;;;1.25;54.97
21300;BME280;10809;49.476;11.016;2024-01-30T01:57:04;99702.50;;;1.26;55.08
21300;BME280;10809;49.476;11.016;2024-01-30T01:59:35;99705.13;;;1.26;55.12
21300;BME280;10809;49.476;11.016;2024-01-30T02:02:07;99701.66;;;1.27;55.51
21300;BME280;10809;49.476;11.016;2024-01-30T02:04:41;99699.06;;;1.27;55.40
21300;BME280;10809;49.476;11.016;2024-01-30T02:07:18;99704.28;;;1.27;55.32
21300;BME280;10809;49.476;11.016;2024-01-30T02:09:48;99714.69;;;1.27;55.05
21300;BME280;10809;49.476;11.016;2024-01-30T02:12:22;99706.00;;;1.26;55.33
21300;BME280;10809;49.476;11.016;2024-01-30T02:14:52;99710.31;;;1.26;54.96
21300;BME280;10809;49.476;11.016;2024-01-30T02:17:24;99709.47;;;1.25;54.99
21300;BME280;10809;49.476;11.016;2024-01-30T02:19:55;99725.97;;;1.24;55.14
21300;BME280;10809;49.476;11.016;2024-01-30T02:22:25;99707.72;;;1.23;55.07
21300;BME280;10809;49.476;11.016;2024-01-30T02:24:56;99705.09;;;1.21;55.26
21300;BME280;10809;49.476;11.016;2024-01-30T02:27:26;99699.88;;;1.20;55.41
21300;BME280;10809;49.476;11.016;2024-01-30T02:29:57;99694.66;;;1.17;55.37
21300;BME280;10809;49.476;11.016;2024-01-30T02:32:27;99696.41;;;1.16;55.64
21300;BME280;10809;49.476;11.016;2024-01-30T02:34:58;99690.31;;;1.14;55.07
21300;BME280;10809;49.476;11.016;2024-01-30T02:37:29;99701.63;;;1.15;55.33
21300;BME280;10809;49.476;11.016;2024-01-30T02:39:59;99701.59;;;1.13;55.38
21300;BME280;10809;49.476;11.016;2024-01-30T02:42:30;99707.66;;;1.11;55.32
21300;BME280;10809;49.476;11.016;2024-01-30T02:45:00;99711.16;;;1.10;55.14
21300;BME280;10809;49.476;11.016;2024-01-30T02:47:30;99707.66;;;1.08;55.15
21300;BME280;10809;49.476;11.016;2024-01-30T02:50:01;99706.75;;;1.06;55.62
21300;BME280;10809;49.476;11.016;2024-01-30T02:52:32;99708.53;;;1.05;55.44
21300;BME280;10809;49.476;11.016;2024-01-30T02:55:02;99703.28;;;1.04;55.21
21300;BME280;10809;49.476;11.016;2024-01-30T02:57:36;99700.69;;;1.04;55.58
21300;BME280;10809;49.476;11.016;2024-01-30T03:00:07;99706.75;;;1.03;55.21
21300;BME280;10809;49.476;11.016;2024-01-30T03:02:39;99702.41;;;1.02;55.49
21300;BME280;10809;49.476;11.016;2024-01-30T03:05:10;99705.88;;;1.01;55.34
21300;BME280;10809;49.476;11.016;2024-01-30T03:07:46;99704.13;;;1.00;55.69
21300;BME280;10809;49.476;11.016;2024-01-30T03:10:17;99710.22;;;1.00;55.41
21300;BME280;10809;49.476;11.016;2024-01-30T03:12:47;99707.59;;;0.99;55.90
21300;BME280;10809;49.476;11.016;2024-01-30T03:15:21;99698.06;;;0.98;55.71
21300;BME280;10809;49.476;11.016;2024-01-30T03:17:53;99695.44;;;0.98;55.87
21300;BME280;10809;49.476;11.016;2024-01-30T03:20:23;99698.91;;;0.97;55.88
21300;BME280;10809;49.476;11.016;2024-01-30T03:22:55;99692.84;;;0.96;55.41
21300;BME280;10809;49.476;11.016;2024-01-30T03:25:25;99686.72;;;0.96;55.86
21300;BME280;10809;49.476;11.016;2024-01-30T03:27:56;99685.84;;;0.95;55.53
21300;BME280;10809;49.476;11.016;2024-01-30T03:30:26;99693.66;;;0.94;55.76
21300;BME280;10809;49.476;11.016;2024-01-30T03:32:57;99696.28;;;0.92;55.94
21300;BME280;10809;49.476;11.016;2024-01-30T03:35:27;99698.03;;;0.92;55.91
21300;BME280;10809;49.476;11.016;2024-01-30T03:37:58;99691.91;;;0.90;55.84
21300;BME280;10809;49.476;11.016;2024-01-30T03:40:28;99695.41;;;0.89;55.98
21300;BME280;10809;49.476;11.016;2024-01-30T03:42:58;99693.63;;;0.88;55.75
21300;BME280;10809;49.476;11.016;2024-01-30T03:45:29;99694.53;;;0.88;55.49
21300;BME280;10809;49.476;11.016;2024-01-30T03:47:59;99706.66;;;0.88;56.00
21300;BME280;10809;49.476;11.016;2024-01-30T03:50:30;99707.53;;;0.87;55.76
21300;BME280;10809;49.476;11.016;2024-01-30T03:53:00;99696.22;;;0.86;55.77
21300;BME280;10809;49.476;11.016;2024-01-30T03:55:31;99700.59;;;0.86;56.05
21300;BME280;10809;49.476;11.016;2024-01-30T03:58:01;99698.84;;;0.86;56.08
21300;BME280;10809;49.476;11.016;2024-01-30T04:00:31;99699.72;;;0.87;56.07
21300;BME280;10809;49.476;11.016;2024-01-30T04:03:02;99693.63;;;0.86;55.69
21300;BME280;10809;49.476;11.016;2024-01-30T04:05:33;99696.22;;;0.86;56.14
21300;BME280;10809;49.476;11.016;2024-01-30T04:08:03;99692.78;;;0.87;56.13
21300;BME280;10809;49.476;11.016;2024-01-30T04:10:34;99691.03;;;0.88;56.21
21300;BME280;10809;49.476;11.016;2024-01-30T04:13:04;99695.38;;;0.86;55.90
21300;BME280;10809;49.476;11.016;2024-01-30T04:15:35;99693.63;;;0.86;55.68
21300;BME280;10809;49.476;11.016;2024-01-30T04:18:06;99699.72;;;0.87;56.19
21300;BME280;10809;49.476;11.016;2024-01-30T04:20:36;99704.94;;;0.87;56.14
21300;BME280;10809;49.476;11.016;2024-01-30T04:23:07;99695.38;;;0.86;55.84
21300;BME280;10809;49.476;11.016;2024-01-30T04:25:37;99695.38;;;0.86;55.90
21300;BME280;10809;49.476;11.016;2024-01-30T04:28:07;99694.50;;;0.85;56.24
21300;BME280;10809;49.476;11.016;2024-01-30T04:30:38;99696.22;;;0.86;56.26
21300;BME280;10809;49.476;11.016;2024-01-30T04:33:10;99697.13;;;0.87;56.33
21300;BME280;10809;49.476;11.016;2024-01-30T04:35:40;99698.00;;;0.86;56.04
21300;BME280;10809;49.476;11.016;2024-01-30T04:38:11;99704.94;;;0.87;56.07
21300;BME280;10809;49.476;11.016;2024-01-30T04:40:41;99704.06;;;0.88;56.08
21300;BME280;10809;49.476;11.016;2024-01-30T04:43:12;99704.06;;;0.88;56.39
21300;BME280;10809;49.476;11.016;2024-01-30T04:45:42;99703.22;;;0.89;56.32
21300;BME280;10809;49.476;11.016;2024-01-30T04:48:13;99702.34;;;0.90;56.07
21300;BME280;10809;49.476;11.016;2024-01-30T04:50:43;99712.78;;;0.91;56.43
21300;BME280;10809;49.476;11.016;2024-01-30T04:53:14;99712.78;;;0.91;56.25
21300;BME280;10809;49.476;11.016;2024-01-30T04:55:44;99718.00;;;0.93;56.39
21300;BME280;10809;49.476;11.016;2024-01-30T04:58:15;99714.53;;;0.94;56.77
21300;BME280;10809;49.476;11.016;2024-01-30T05:00:45;99714.53;;;0.95;56.13
21300;BME280;10809;49.476;11.016;2024-01-30T05:03:19;99712.81;;;0.96;56.29
21300;BME280;10809;49.476;11.016;2024-01-30T05:05:49;99718.03;;;0.97;56.43
21300;BME280;10809;49.476;11.016;2024-01-30T05:08:20;99718.03;;;0.99;56.23
21300;BME280;10809;49.476;11.016;2024-01-30T05:10:51;99721.53;;;0.99;56.67
21300;BME280;10809;49.476;11.016;2024-01-30T05:13:22;99726.75;;;1.01;56.22
21300;BME280;10809;49.476;11.016;2024-01-30T05:15:52;99724.16;;;1.01;56.65
21300;BME280;10809;49.476;11.016;2024-01-30T05:18:24;99721.53;;;1.02;56.63
21300;BME280;10809;49.476;11.016;2024-01-30T05:20:55;99737.19;;;1.02;56.43
21300;BME280;10809;49.476;11.016;2024-01-30T05:23:25;99719.78;;;1.03;56.59
21300;BME280;10809;49.476;11.016;2024-01-30T05:25:55;99730.22;;;1.03;56.44
21300;BME280;10809;49.476;11.016;2024-01-30T05:28:26;99731.97;;;1.04;56.29
21300;BME280;10809;49.476;11.016;2024-01-30T05:30:57;99729.38;;;1.04;56.39
21300;BME280;10809;49.476;11.016;2024-01-30T05:33:27;99736.31;;;1.05;56.49
21300;BME280;10809;49.476;11.016;2024-01-30T05:35:58;99729.38;;;1.05;56.49
21300;BME280;10809;49.476;11.016;2024-01-30T05:38:29;99732.84;;;1.06;56.39
21300;BME280;10809;49.476;11.016;2024-01-30T05:40:59;99732.84;;;1.07;56.28
21300;BME280;10809;49.476;11.016;2024-01-30T05:43:29;99730.25;;;1.07;56.67
21300;BME280;10809;49.476;11.016;2024-01-30T05:46:00;99726.78;;;1.08;56.56
21300;BME280;10809;49.476;11.016;2024-01-30T05:48:31;99737.22;;;1.08;56.60
21300;BME280;10809;49.476;11.016;2024-01-30T05:51:02;99733.72;;;1.09;56.42
21300;BME280;10809;49.476;11.016;2024-01-30T05:53:34;99737.22;;;1.10;56.19
21300;BME280;10809;49.476;11.016;2024-01-30T05:56:05;99739.84;;;1.11;56.72
21300;BME280;10809;49.476;11.016;2024-01-30T05:58:35;99740.72;;;1.12;56.88
21300;BME280;10809;49.476;11.016;2024-01-30T06:01:07;99735.50;;;1.12;56.50
21300;BME280;10809;49.476;11.016;2024-01-30T06:03:38;99732.03;;;1.13;56.97
21300;BME280;10809;49.476;11.016;2024-01-30T06:06:12;99732.03;;;1.13;56.55
21300;BME280;10809;49.476;11.016;2024-01-30T06:08:42;99732.91;;;1.13;56.35
21300;BME280;10809;49.476;11.016;2024-01-30T06:11:13;99740.75;;;1.15;56.48
21300;BME280;10809;49.476;11.016;2024-01-30T06:13:43;99738.97;;;1.14;56.83
21300;BME280;10809;49.476;11.016;2024-01-30T06:16:14;99736.38;;;1.14;56.81
21300;BME280;10809;49.476;11.016;2024-01-30T06:18:44;99745.97;;;1.15;56.74
21300;BME280;10809;49.476;11.016;2024-01-30T06:21:15;99737.25;;;1.16;56.82
21300;BME280;10809;49.476;11.016;2024-01-30T06:23:45;99743.34;;;1.16;56.99
21300;BME280;10809;49.476;11.016;2024-01-30T06:26:16;99749.41;;;1.17;56.85
21300;BME280;10809;49.476;11.016;2024-01-30T06:28:46;99743.34;;;1.18;56.97
21300;BME280;10809;49.476;11.016;2024-01-30T06:31:16;99742.47;;;1.17;56.53
21300;BME280;10809;49.476;11.016;2024-01-30T06:33:47;99738.13;;;1.18;56.66
21300;BME280;10809;49.476;11.016;2024-01-30T06:36:18;99738.13;;;1.18;57.25
21300;BME280;10809;49.476;11.016;2024-01-30T06:38:48;99734.66;;;1.19;57.20
21300;BME280;10809;49.476;11.016;2024-01-30T06:41:19;99744.22;;;1.20;56.84
21300;BME280;10809;49.476;11.016;2024-01-30T06:43:49;99740.75;;;1.21;57.01
21300;BME280;10809;49.476;11.016;2024-01-30T06:46:20;99742.50;;;1.20;57.04
21300;BME280;10809;49.476;11.016;2024-01-30T06:48:50;99742.50;;;1.22;56.59
21300;BME280;10809;49.476;11.016;2024-01-30T06:51:21;99742.50;;;1.22;56.52
21300;BME280;10809;49.476;11.016;2024-01-30T06:53:54;99738.16;;;1.22;56.92
21300;BME280;10809;49.476;11.016;2024-01-30T06:56:25;99739.00;;;1.23;56.70
21300;BME280;10809;49.476;11.016;2024-01-30T06:58:58;99745.13;;;1.23;56.84
21300;BME280;10809;49.476;11.016;2024-01-30T07:01:29;99746.00;;;1.24;56.80
21300;BME280;10809;49.476;11.016;2024-01-30T07:04:00;99746.84;;;1.24;56.50
21300;BME280;10809;49.476;11.016;2024-01-30T07:06:30;99748.59;;;1.24;56.21
21300;BME280;10809;49.476;11.016;2024-01-30T07:09:01;99752.06;;;1.24;56.67
21300;BME280;10809;49.476;11.016;2024-01-30T07:11:31;99750.31;;;1.23;57.10
21300;BME280;10809;49.476;11.016;2024-01-30T07:14:02;99752.94;;;1.25;56.95
21300;BME280;10809;49.476;11.016;2024-01-30T07:16:38;99751.22;;;1.24;56.72
21300;BME280;10809;49.476;11.016;2024-01-30T07:19:09;99750.34;;;1.25;57.12
21300;BME280;10809;49.476;11.016;2024-01-30T07:21:39;99752.94;;;1.25;57.27
21300;BME280;10809;49.476;11.016;2024-01-30T07:24:10;99758.16;;;1.25;57.13
21300;BME280;10809;49.476;11.016;2024-01-30T07:26:41;99766.88;;;1.25;56.87
21300;BME280;10809;49.476;11.016;2024-01-30T07:29:11;99766.00;;;1.26;57.00
21300;BME280;10809;49.476;11.016;2024-01-30T07:31:41;99766.00;;;1.28;57.38
21300;BME280;10809;49.476;11.016;2024-01-30T07:34:12;99767.75;;;1.30;57.36
21300;BME280;10809;49.476;11.016;2024-01-30T07:36:42;99766.91;;;1.33;56.79
21300;BME280;10809;49.476;11.016;2024-01-30T07:39:13;99772.97;;;1.35;57.41
21300;BME280;10809;49.476;11.016;2024-01-30T07:41:43;99772.16;;;1.39;57.50
21300;BME280;10809;49.476;11.016;2024-01-30T07:44:14;99766.94;;;1.42;57.55
21300;BME280;10809;49.476;11.016;2024-01-30T07:46:44;99772.16;;;1.45;57.51
21300;BME280;10809;49.476;11.016;2024-01-30T07:49:15;99773.03;;;1.48;57.70
21300;BME280;10809;49.476;11.016;2024-01-30T07:51:45;99768.72;;;1.52;57.40
21300;BME280;10809;49.476;11.016;2024-01-30T07:54:16;99772.22;;;1.57;57.60
21300;BME280;10809;49.476;11.016;2024-01-30T07:56:47;99773.06;;;1.60;57.48
21300;BME280;10809;49.476;11.016;2024-01-30T07:59:21;99780.06;;;1.66;57.57
21300;BME280;10809;49.476;11.016;2024-01-30T08:01:58;99774.88;;;1.69;57.22
21300;BME280;10809;49.476;11.016;2024-01-30T08:04:28;99781.84;;;1.73;58.19
21300;BME280;10809;49.476;11.016;2024-01-30T08:06:58;99781.00;;;1.75;57.19
21300;BME280;10809;49.476;11.016;2024-01-30T08:09:29;99778.38;;;1.80;57.62
21300;BME280;10809;49.476;11.016;2024-01-30T08:11:59;99780.13;;;1.84;57.84
21300;BME280;10809;49.476;11.016;2024-01-30T08:14:30;99779.25;;;1.88;57.58
21300;BME280;10809;49.476;11.016;2024-01-30T08:17:00;99776.66;;;1.92;58.02
21300;BME280;10809;49.476;11.016;2024-01-30T08:19:34;99775.81;;;1.96;57.95
21300;BME280;10809;49.476;11.016;2024-01-30T08:22:04;99780.16;;;2.00;57.75
21300;BME280;10809;49.476;11.016;2024-01-30T08:24:35;99775.84;;;2.04;57.79
21300;BME280;10809;49.476;11.016;2024-01-30T08:27:06;99777.56;;;2.08;57.87
21300;BME280;10809;49.476;11.016;2024-01-30T08:29:36;99772.34;;;2.11;57.76
21300;BME280;10809;49.476;11.016;2024-01-30T08:32:07;99776.72;;;2.15;57.77
21300;BME280;10809;49.476;11.016;2024-01-30T08:34:37;99771.50;;;2.18;57.88
21300;BME280;10809;49.476;11.016;2024-01-30T08:37:08;99765.41;;;2.22;57.88
21300;BME280;10809;49.476;11.016;2024-01-30T08:39:38;99768.91;;;2.25;57.32
21300;BME280;10809;49.476;11.016;2024-01-30T08:42:09;99773.25;;;2.29;58.10
21300;BME280;10809;49.476;11.016;2024-01-30T08:44:40;99779.34;;;2.31;57.42
21300;BME280;10809;49.476;11.016;2024-01-30T08:47:10;99776.75;;;2.34;57.65
21300;BME280;10809;49.476;11.016;2024-01-30T08:49:41;99780.22;;;2.38;57.58
21300;BME280;10809;49.476;11.016;2024-01-30T08:52:14;99775.88;;;2.40;57.26
21300;BME280;10809;49.476;11.016;2024-01-30T08:54:44;99776.75;;;2.43;57.29
21300;BME280;10809;49.476;11.016;2024-01-30T08:57:15;99768.03;;;2.46;58.27
21300;BME280;10809;49.476;11.016;2024-01-30T08:59:46;99777.59;;;2.48;58.09
21300;BME280;10809;49.476;11.016;2024-01-30T09:02:16;99769.75;;;2.51;57.59
21300;BME280;10809;49.476;11.016;2024-01-30T09:04:48;99779.34;;;2.56;58.23
21300;BME280;10809;49.476;11.016;2024-01-30T09:07:18;99771.50;;;2.60;58.27
21300;BME280;10809;49.476;11.016;2024-01-30T09:09:49;99770.63;;;2.64;58.02
21300;BME280;10809;49.476;11.016;2024-01-30T09:12:19;99767.16;;;2.68;58.15
21300;BME280;10809;49.476;11.016;2024-01-30T09:14:50;99772.38;;;2.74;57.67
21300;BME280;10809;49.476;11.016;2024-01-30T09:17:20;99774.09;;;2.80;58.15
21300;BME280;10809;49.476;11.016;2024-01-30T09:19:50;99788.09;;;2.86;57.56
21300;BME280;10809;49.476;11.016;2024-01-30T09:22:21;99777.63;;;2.92;58.14
21300;BME280;10809;49.476;11.016;2024-01-30T09:24:51;99784.56;;;2.99;58.26
21300;BME280;10809;49.476;11.016;2024-01-30T09:27:22;99778.44;;;3.06;58.38
21300;BME280;10809;49.476;11.016;2024-01-30T09:29:53;99784.53;;;3.14;58.37
21300;BME280;10809;49.476;11.016;2024-01-30T09:32:23;99779.28;;;3.22;58.65
21300;BME280;10809;49.476;11.016;2024-01-30T09:34:54;99781.88;;;3.31;58.42
21300;BME280;10809;49.476;11.016;2024-01-30T09:37:24;99782.72;;;3.37;57.93
21300;BME280;10809;49.476;11.016;2024-01-30T09:39:55;99776.59;;;3.44;58.49
21300;BME280;10809;49.476;11.016;2024-01-30T09:42:34;99779.16;;;3.52;58.45
21300;BME280;10809;49.476;11.016;2024-01-30T09:45:06;99770.44;;;3.57;57.96
21300;BME280;10809;49.476;11.016;2024-01-30T09:47:41;99768.66;;;3.62;58.24
21300;BME280;10809;49.476;11.016;2024-01-30T09:50:15;99772.13;;;3.67;57.65
21300;BME280;10809;49.476;11.016;2024-01-30T09:52:47;99772.09;;;3.72;57.64
21300;BME280;10809;49.476;11.016;2024-01-30T09:55:18;99773.84;;;3.74;57.50
21300;BME280;10809;49.476;11.016;2024-01-30T09:57:48;99772.06;;;3.78;57.89
21300;BME280;10809;49.476;11.016;2024-01-30T10:00:19;99772.06;;;3.82;57.38
21300;BME280;10809;49.476;11.016;2024-01-30T10:02:49;99771.19;;;3.85;57.89
21300;BME280;10809;49.476;11.016;2024-01-30T10:05:26;99775.53;;;3.89;57.87
21300;BME280;10809;49.476;11.016;2024-01-30T10:07:57;99771.13;;;3.92;57.40
21300;BME280;10809;49.476;11.016;2024-01-30T10:10:28;99779.84;;;3.96;57.61
21300;BME280;10809;49.476;11.016;2024-01-30T10:12:58;99775.44;;;3.99;57.61
21300;BME280;10809;49.476;11.016;2024-01-30T10:15:29;99769.31;;;4.02;57.83
21300;BME280;10809;49.476;11.016;2024-01-30T10:17:59;99768.44;;;4.06;57.78
21300;BME280;10809;49.476;11.016;2024-01-30T10:20:30;99766.63;;;4.09;57.33
21300;BME280;10809;49.476;11.016;2024-01-30T10:23:01;99776.22;;;4.15;57.55
21300;BME280;10809;49.476;11.016;2024-01-30T10:25:32;99775.34;;;4.17;57.42
21300;BME280;10809;49.476;11.016;2024-01-30T10:28:03;99762.19;;;4.22;57.84
21300;BME280;10809;49.476;11.016;2024-01-30T10:30:33;99763.06;;;4.25;57.92
21300;BME280;10809;49.476;11.016;2024-01-30T10:33:04;99760.41;;;4.30;58.00
21300;BME280;10809;49.476;11.016;2024-01-30T10:35:34;99764.72;;;4.34;57.37
21300;BME280;10809;49.476;11.016;2024-01-30T10:38:06;99764.69;;;4.37;57.27
21300;BME280;10809;49.476;11.016;2024-01-30T10:40:39;99764.66;;;4.42;57.53
21300;BME280;10809;49.476;11.016;2024-01-30T10:43:15;99752.41;;;4.47;57.56
21300;BME280;10809;49.476;11.016;2024-01-30T10:45:49;99743.63;;;4.51;57.82
21300;BME280;10809;49.476;11.016;2024-01-30T10:48:26;99747.97;;;4.55;57.67
21300;BME280;10809;49.476;11.016;2024-01-30T10:51:00;99746.16;;;4.58;57.60
21300;BME280;10809;49.476;11.016;2024-01-30T10:53:33;99754.00;;;4.63;57.94
21300;BME280;10809;49.476;11.016;2024-01-30T10:56:05;99755.72;;;4.67;57.94
21300;BME280;10809;49.476;11.016;2024-01-30T10:58:36;99746.94;;;4.71;57.40
21300;BME280;10809;49.476;11.016;2024-01-30T11:01:07;99753.91;;;4.76;57.84
21300;BME280;10809;49.476;11.016;2024-01-30T11:03:38;99745.09;;;4.80;57.40
21300;BME280;10809;49.476;11.016;2024-01-30T11:06:11;99745.06;;;4.85;57.19
21300;BME280;10809;49.476;11.016;2024-01-30T11:09:04;99746.75;;;4.89;57.32
21300;BME280;10809;49.476;11.016;2024-01-30T11:11:58;99748.50;;;4.93;57.39
21300;BME280;10809;49.476;11.016;2024-01-30T11:14:30;99740.56;;;4.99;57.37
21300;BME280;10809;49.476;11.016;2024-01-30T11:17:01;99737.88;;;5.02;57.74
21300;BME280;10809;49.476;11.016;2024-01-30T11:19:33;99738.69;;;5.07;57.08
21300;BME280;10809;49.476;11.016;2024-01-30T11:22:06;99730.78;;;5.10;57.30
21300;BME280;10809;49.476;11.016;2024-01-30T11:24:40;99734.22;;;5.15;57.58
21300;BME280;10809;49.476;11.016;2024-01-30T11:27:14;99730.66;;;5.20;57.33
21300;BME280;10809;49.476;11.016;2024-01-30T11:29:49;99720.16;;;5.25;57.81
21300;BME280;10809;49.476;11.016;2024-01-30T11:32:26;99728.84;;;5.30;57.47
21300;BME280;10809;49.476;11.016;2024-01-30T11:34:58;99721.78;;;5.35;57.58
21300;BME280;10809;49.476;11.016;2024-01-30T11:37:30;99723.47;;;5.40;57.66
21300;BME280;10809;49.476;11.016;2024-01-30T11:40:02;99718.13;;;5.46;57.59
21300;BME280;10809;49.476;11.016;2024-01-30T11:42:34;99718.06;;;5.51;57.63
21300;BME280;10809;49.476;11.016;2024-01-30T11:45:05;99709.25;;;5.56;57.65
21300;BME280;10809;49.476;11.016;2024-01-30T11:47:36;99703.94;;;5.61;57.45
21300;BME280;10809;49.476;11.016;2024-01-30T11:50:10;99701.25;;;5.65;57.53
21300;BME280;10809;49.476;11.016;2024-01-30T11:52:41;99707.28;;;5.70;57.38
21300;BME280;10809;49.476;11.016;2024-01-30T11:55:14;99694.97;;;5.74;57.15
21300;BME280;10809;49.476;11.016;2024-01-30T11:57:44;99697.53;;;5.78;57.22
21300;BME280;10809;49.476;11.016;2024-01-30T12:00:16;99688.75;;;5.82;57.11
21300;BME280;10809;49.476;11.016;2024-01-30T12:02:52;99690.44;;;5.86;57.57
21300;BME280;10809;49.476;11.016;2024-01-30T12:05:26;99692.09;;;5.90;57.25
21300;BME280;10809;49.476;11.016;2024-01-30T12:07:58;99688.56;;;5.94;57.17
21300;BME280;10809;49.476;11.016;2024-01-30T12:10:31;99687.59;;;6.00;57.32
21300;BME280;10809;49.476;11.016;2024-01-30T12:13:02;99679.63;;;6.04;57.34
21300;BME280;10809;49.476;11.016;2024-01-30T12:15:32;99681.31;;;6.08;57.38
21300;BME280;10809;49.476;11.016;2024-01-30T12:18:04;99670.72;;;6.13;57.23
21300;BME280;10809;49.476;11.016;2024-01-30T12:20:36;99668.91;;;6.18;57.27
21300;BME280;10809;49.476;11.016;2024-01-30T12:23:06;99665.28;;;6.24;57.41
21300;BME280;10809;49.476;11.016;2024-01-30T12:25:37;99659.94;;;6.30;57.41
21300;BME280;10809;49.476;11.016;2024-01-30T12:28:13;99665.94;;;6.36;57.34
21300;BME280;10809;49.476;11.016;2024-01-30T12:30:46;99656.19;;;6.43;57.38
21300;BME280;10809;49.476;11.016;2024-01-30T12:33:17;99655.22;;;6.48;57.20
21300;BME280;10809;49.476;11.016;2024-01-30T12:35:54;99654.25;;;6.54;57.21
21300;BME280;10809;49.476;11.016;2024-01-30T12:38:27;99647.13;;;6.59;57.16
21300;BME280;10809;49.476;11.016;2024-01-30T12:40:58;99644.41;;;6.63;57.16
21300;BME280;10809;49.476;11.016;2024-01-30T12:43:29;99643.47;;;6.67;56.91
21300;BME280;10809;49.476;11.016;2024-01-30T12:45:59;99628.47;;;6.71;57.00
21300;BME280;10809;49.476;11.016;2024-01-30T12:48:34;99632.78;;;6.76;56.81
21300;BME280;10809;49.476;11.016;2024-01-30T12:51:05;99633.59;;;6.80;56.94
21300;BME280;10809;49.476;11.016;2024-01-30T12:53:35;99636.97;;;6.85;56.92
21300;BME280;10809;49.476;11.016;2024-01-30T12:56:06;99635.16;;;6.88;56.86
21300;BME280;10809;49.476;11.016;2024-01-30T12:58:36;99629.84;;;6.91;56.82
21300;BME280;10809;49.476;11.016;2024-01-30T13:01:07;99623.63;;;6.94;56.63
21300;BME280;10809;49.476;11.016;2024-01-30T13:03:37;99626.19;;;6.98;56.70
21300;BME280;10809;49.476;11.016;2024-01-30T13:06:08;99630.50;;;7.02;56.55
21300;BME280;10809;49.476;11.016;2024-01-30T13:08:38;99628.69;;;7.04;56.78
21300;BME280;10809;49.476;11.016;2024-01-30T13:11:08;99633.03;;;7.08;56.72
21300;BME280;10809;49.476;11.016;2024-01-30T13:13:39;99627.72;;;7.11;56.73
21300;BME280;10809;49.476;11.016;2024-01-30T13:16:09;99633.72;;;7.16;56.90
21300;BME280;10809;49.476;11.016;2024-01-30T13:18:40;99629.25;;;7.21;56.78
21300;BME280;10809;49.476;11.016;2024-01-30T13:21:11;99637.06;;;7.26;56.71